Burien, Washington
Current Conditions -  °F | °C
As of 8:53 PM on Thursday 27 Nov 2014 (Local Time) from KSEA Reporting Station
Overcast Overcast  
Wind Chill: 54°   Ceiling: 2600
Heat Index: 54°   Visibility: 10mi
Dew Point: 50°   Wind: 10mph
Humidity: 86%   Direction: 200°SSW
Pressure: 29.74"   Gusts: 21mph
Location:  47.47°N, 122.34°W
Report Text: KSEA 280453Z 20009G18KT 10SM FEW016 BKN026 OVC032 12/10 A2974 RMK AO2 SLP077 T01220100
Loading
Personal Weather Stations






























Interactive Weather Map New forecast layout! Learn more

10-Day Weather Forecast

Advertisements
Track Severe Weather on mobile